sensor_id;sensor_type;location;lat;lon;timestamp;temperature;humidity
64924;HTU21D;51436;44.692;39.214;2022-08-01T00:01:29;23.07;70.55
64924;HTU21D;51436;44.692;39.214;2022-08-01T00:03:56;23.03;70.57
64924;HTU21D;51436;44.692;39.214;2022-08-01T00:06:22;23.05;70.44
64924;HTU21D;51436;44.692;39.214;2022-08-01T00:08:49;23.05;70.42
64924;HTU21D;51436;44.692;39.214;2022-08-01T00:11:15;22.99;70.52
64924;HTU21D;51436;44.692;39.214;2022-08-01T00:13:41;22.98;70.49
64924;HTU21D;51436;44.692;39.214;2022-08-01T00:16:08;22.96;70.48
64924;HTU21D;51436;44.692;39.214;2022-08-01T00:18:34;22.95;70.45
64924;HTU21D;51436;44.692;39.214;2022-08-01T00:21:02;22.97;70.29
64924;HTU21D;51436;44.692;39.214;2022-08-01T00:23:29;22.98;70.24
64924;HTU21D;51436;44.692;39.214;2022-08-01T00:25:56;22.93;70.33
64924;HTU21D;51436;44.692;39.214;2022-08-01T00:28:22;22.87;70.45
64924;HTU21D;51436;44.692;39.214;2022-08-01T00:30:48;22.84;70.49
64924;HTU21D;51436;44.692;39.214;2022-08-01T00:33:15;22.84;70.45
64924;HTU21D;51436;44.692;39.214;2022-08-01T00:35:41;22.82;70.48
64924;HTU21D;51436;44.692;39.214;2022-08-01T00:38:08;22.82;70.49
64924;HTU21D;51436;44.692;39.214;2022-08-01T00:40:34;22.82;70.49
64924;HTU21D;51436;44.692;39.214;2022-08-01T00:43:03;22.79;70.56
64924;HTU21D;51436;44.692;39.214;2022-08-01T00:45:30;22.76;70.71
64924;HTU21D;51436;44.692;39.214;2022-08-01T00:47:56;22.76;70.61
64924;HTU21D;51436;44.692;39.214;2022-08-01T00:50:23;22.72;70.63
64924;HTU21D;51436;44.692;39.214;2022-08-01T00:52:50;22.72;70.57
64924;HTU21D;51436;44.692;39.214;2022-08-01T00:55:18;22.73;70.53
64924;HTU21D;51436;44.692;39.214;2022-08-01T00:57:45;22.71;70.55
64924;HTU21D;51436;44.692;39.214;2022-08-01T01:00:12;22.66;70.68
64924;HTU21D;51436;44.692;39.214;2022-08-01T01:02:39;22.63;70.77
64924;HTU21D;51436;44.692;39.214;2022-08-01T01:05:05;22.61;70.74
64924;HTU21D;51436;44.692;39.214;2022-08-01T01:10:21;22.56;70.66
64924;HTU21D;51436;44.692;39.214;2022-08-01T01:13:09;22.57;70.47
64924;HTU21D;51436;44.692;39.214;2022-08-01T01:18:17;22.49;70.69
64924;HTU21D;51436;44.692;39.214;2022-08-01T01:21:07;22.49;70.67
64924;HTU21D;51436;44.692;39.214;2022-08-01T01:23:50;22.51;70.67
64924;HTU21D;51436;44.692;39.214;2022-08-01T01:26:52;22.51;70.60
64924;HTU21D;51436;44.692;39.214;2022-08-01T01:32:09;22.51;70.63
64924;HTU21D;51436;44.692;39.214;2022-08-01T01:34:43;22.47;70.78
64924;HTU21D;51436;44.692;39.214;2022-08-01T01:37:21;22.48;70.77
64924;HTU21D;51436;44.692;39.214;2022-08-01T01:39:51;22.42;70.97
64924;HTU21D;51436;44.692;39.214;2022-08-01T01:42:19;22.42;71.06
64924;HTU21D;51436;44.692;39.214;2022-08-01T01:44:48;22.48;70.90
64924;HTU21D;51436;44.692;39.214;2022-08-01T01:47:17;22.51;70.81
64924;HTU21D;51436;44.692;39.214;2022-08-01T01:49:45;22.51;70.82
64924;HTU21D;51436;44.692;39.214;2022-08-01T01:52:16;22.48;70.96
64924;HTU21D;51436;44.692;39.214;2022-08-01T01:54:49;22.43;71.06
64924;HTU21D;51436;44.692;39.214;2022-08-01T01:57:17;22.43;71.22
64924;HTU21D;51436;44.692;39.214;2022-08-01T01:59:45;22.40;71.33
64924;HTU21D;51436;44.692;39.214;2022-08-01T02:02:13;22.43;71.29
64924;HTU21D;51436;44.692;39.214;2022-08-01T02:04:43;22.39;71.42
64924;HTU21D;51436;44.692;39.214;2022-08-01T02:07:12;22.35;71.48
64924;HTU21D;51436;44.692;39.214;2022-08-01T02:09:42;22.36;71.46
64924;HTU21D;51436;44.692;39.214;2022-08-01T02:12:10;22.35;71.50
64924;HTU21D;51436;44.692;39.214;2022-08-01T02:14:38;22.38;71.35
64924;HTU21D;51436;44.692;39.214;2022-08-01T02:17:06;22.38;71.29
64924;HTU21D;51436;44.692;39.214;2022-08-01T02:19:33;22.40;71.11
64924;HTU21D;51436;44.692;39.214;2022-08-01T02:24:56;22.31;71.32
64924;HTU21D;51436;44.692;39.214;2022-08-01T02:27:37;22.37;71.13
64924;HTU21D;51436;44.692;39.214;2022-08-01T02:30:08;22.55;70.81
64924;HTU21D;51436;44.692;39.214;2022-08-01T02:32:41;22.85;70.11
64924;HTU21D;51436;44.692;39.214;2022-08-01T02:35:29;23.20;69.26
64924;HTU21D;51436;44.692;39.214;2022-08-01T02:37:58;23.50;68.48
64924;HTU21D;51436;44.692;39.214;2022-08-01T02:40:32;23.85;67.73
64924;HTU21D;51436;44.692;39.214;2022-08-01T02:42:59;24.11;67.35
64924;HTU21D;51436;44.692;39.214;2022-08-01T02:45:26;24.45;66.31
64924;HTU21D;51436;44.692;39.214;2022-08-01T02:47:57;24.76;65.60
64924;HTU21D;51436;44.692;39.214;2022-08-01T02:50:29;25.03;64.86
64924;HTU21D;51436;44.692;39.214;2022-08-01T02:52:57;25.21;64.35
64924;HTU21D;51436;44.692;39.214;2022-08-01T02:55:24;25.46;63.57
64924;HTU21D;51436;44.692;39.214;2022-08-01T02:57:53;25.62;63.03
64924;HTU21D;51436;44.692;39.214;2022-08-01T03:00:22;25.61;62.92
64924;HTU21D;51436;44.692;39.214;2022-08-01T03:02:51;25.45;63.50
64924;HTU21D;51436;44.692;39.214;2022-08-01T03:05:20;25.29;64.08
64924;HTU21D;51436;44.692;39.214;2022-08-01T03:07:47;25.17;64.50
64924;HTU21D;51436;44.692;39.214;2022-08-01T03:10:15;25.08;64.86
64924;HTU21D;51436;44.692;39.214;2022-08-01T03:12:43;25.05;65.13
64924;HTU21D;51436;44.692;39.214;2022-08-01T03:15:10;25.04;65.27
64924;HTU21D;51436;44.692;39.214;2022-08-01T03:17:39;25.03;65.33
64924;HTU21D;51436;44.692;39.214;2022-08-01T03:20:08;25.01;65.56
64924;HTU21D;51436;44.692;39.214;2022-08-01T03:22:37;25.02;65.56
64924;HTU21D;51436;44.692;39.214;2022-08-01T03:25:05;25.07;65.48
64924;HTU21D;51436;44.692;39.214;2022-08-01T03:27:33;25.16;65.37
64924;HTU21D;51436;44.692;39.214;2022-08-01T03:30:03;25.24;65.27
64924;HTU21D;51436;44.692;39.214;2022-08-01T03:32:31;25.31;65.25
64924;HTU21D;51436;44.692;39.214;2022-08-01T03:34:58;25.34;65.31
64924;HTU21D;51436;44.692;39.214;2022-08-01T03:37:28;25.40;65.31
64924;HTU21D;51436;44.692;39.214;2022-08-01T03:39:59;25.53;65.14
64924;HTU21D;51436;44.692;39.214;2022-08-01T03:42:36;25.62;65.06
64924;HTU21D;51436;44.692;39.214;2022-08-01T03:45:13;25.72;64.95
64924;HTU21D;51436;44.692;39.214;2022-08-01T03:47:43;25.79;64.80
64924;HTU21D;51436;44.692;39.214;2022-08-01T03:50:11;25.91;64.66
64924;HTU21D;51436;44.692;39.214;2022-08-01T03:52:42;25.96;64.59
64924;HTU21D;51436;44.692;39.214;2022-08-01T03:55:11;26.05;64.50
64924;HTU21D;51436;44.692;39.214;2022-08-01T03:57:38;26.13;64.29
64924;HTU21D;51436;44.692;39.214;2022-08-01T04:00:06;26.24;64.14
64924;HTU21D;51436;44.692;39.214;2022-08-01T04:02:41;26.36;63.95
64924;HTU21D;51436;44.692;39.214;2022-08-01T04:05:08;26.50;63.82
64924;HTU21D;51436;44.692;39.214;2022-08-01T04:07:35;26.58;63.69
64924;HTU21D;51436;44.692;39.214;2022-08-01T04:10:02;26.71;63.56
64924;HTU21D;51436;44.692;39.214;2022-08-01T04:12:29;26.79;63.36
64924;HTU21D;51436;44.692;39.214;2022-08-01T04:14:56;26.81;63.48
64924;HTU21D;51436;44.692;39.214;2022-08-01T04:17:22;26.81;63.65
64924;HTU21D;51436;44.692;39.214;2022-08-01T04:19:48;26.91;63.60
64924;HTU21D;51436;44.692;39.214;2022-08-01T04:22:15;27.01;63.50
64924;HTU21D;51436;44.692;39.214;2022-08-01T04:24:46;27.08;63.54
64924;HTU21D;51436;44.692;39.214;2022-08-01T04:27:19;27.21;63.41
64924;HTU21D;51436;44.692;39.214;2022-08-01T04:29:49;27.34;63.34
64924;HTU21D;51436;44.692;39.214;2022-08-01T04:32:20;27.45;63.20
64924;HTU21D;51436;44.692;39.214;2022-08-01T04:34:48;27.54;63.08
64924;HTU21D;51436;44.692;39.214;2022-08-01T04:37:15;27.64;63.09
64924;HTU21D;51436;44.692;39.214;2022-08-01T04:39:44;27.72;62.94
64924;HTU21D;51436;44.692;39.214;2022-08-01T04:42:13;27.79;62.80
64924;HTU21D;51436;44.692;39.214;2022-08-01T04:44:44;27.79;62.89
64924;HTU21D;51436;44.692;39.214;2022-08-01T04:47:11;27.88;62.77
64924;HTU21D;51436;44.692;39.214;2022-08-01T04:49:41;27.99;62.79
64924;HTU21D;51436;44.692;39.214;2022-08-01T04:52:08;28.02;62.79
64924;HTU21D;51436;44.692;39.214;2022-08-01T04:54:36;28.12;62.76
64924;HTU21D;51436;44.692;39.214;2022-08-01T04:57:03;28.19;62.70
64924;HTU21D;51436;44.692;39.214;2022-08-01T04:59:30;28.18;62.70
64924;HTU21D;51436;44.692;39.214;2022-08-01T05:04:36;28.31;62.59
64924;HTU21D;51436;44.692;39.214;2022-08-01T05:07:03;28.41;62.66
64924;HTU21D;51436;44.692;39.214;2022-08-01T05:09:30;28.49;62.66
64924;HTU21D;51436;44.692;39.214;2022-08-01T05:12:00;28.58;62.71
64924;HTU21D;51436;44.692;39.214;2022-08-01T05:14:30;28.67;62.52
64924;HTU21D;51436;44.692;39.214;2022-08-01T05:17:04;28.71;62.39
64924;HTU21D;51436;44.692;39.214;2022-08-01T05:19:36;28.76;62.20
64924;HTU21D;51436;44.692;39.214;2022-08-01T05:22:07;28.80;62.02
64924;HTU21D;51436;44.692;39.214;2022-08-01T05:24:35;28.85;62.15
64924;HTU21D;51436;44.692;39.214;2022-08-01T05:27:03;28.87;62.24
64924;HTU21D;51436;44.692;39.214;2022-08-01T05:29:30;28.88;62.05
64924;HTU21D;51436;44.692;39.214;2022-08-01T05:31:56;28.91;61.96
64924;HTU21D;51436;44.692;39.214;2022-08-01T05:34:24;28.99;62.00
64924;HTU21D;51436;44.692;39.214;2022-08-01T05:36:51;29.05;61.96
64924;HTU21D;51436;44.692;39.214;2022-08-01T05:39:17;29.07;61.67
64924;HTU21D;51436;44.692;39.214;2022-08-01T05:41:43;29.13;61.55
64924;HTU21D;51436;44.692;39.214;2022-08-01T05:44:10;29.18;61.97
64924;HTU21D;51436;44.692;39.214;2022-08-01T05:46:36;29.18;61.70
64924;HTU21D;51436;44.692;39.214;2022-08-01T05:49:04;29.13;61.92
64924;HTU21D;51436;44.692;39.214;2022-08-01T05:51:31;29.06;62.01
64924;HTU21D;51436;44.692;39.214;2022-08-01T05:53:58;29.07;62.38
64924;HTU21D;51436;44.692;39.214;2022-08-01T05:56:24;29.07;62.23
64924;HTU21D;51436;44.692;39.214;2022-08-01T05:58:51;29.07;62.34
64924;HTU21D;51436;44.692;39.214;2022-08-01T06:01:19;29.14;62.91
64924;HTU21D;51436;44.692;39.214;2022-08-01T06:03:46;29.17;62.27
64924;HTU21D;51436;44.692;39.214;2022-08-01T06:06:12;29.18;62.64
64924;HTU21D;51436;44.692;39.214;2022-08-01T06:08:40;29.20;62.34
64924;HTU21D;51436;44.692;39.214;2022-08-01T06:11:06;29.22;62.58
64924;HTU21D;51436;44.692;39.214;2022-08-01T06:13:33;29.24;62.70
64924;HTU21D;51436;44.692;39.214;2022-08-01T06:15:59;29.24;62.46
64924;HTU21D;51436;44.692;39.214;2022-08-01T06:18:26;29.22;62.91
64924;HTU21D;51436;44.692;39.214;2022-08-01T06:21:11;29.21;63.11
64924;HTU21D;51436;44.692;39.214;2022-08-01T06:23:37;29.19;63.00
64924;HTU21D;51436;44.692;39.214;2022-08-01T06:26:04;29.23;63.00
64924;HTU21D;51436;44.692;39.214;2022-08-01T06:28:30;29.30;62.89
64924;HTU21D;51436;44.692;39.214;2022-08-01T06:30:56;29.34;63.02
64924;HTU21D;51436;44.692;39.214;2022-08-01T06:33:25;29.36;63.06
64924;HTU21D;51436;44.692;39.214;2022-08-01T06:35:52;29.39;62.83
64924;HTU21D;51436;44.692;39.214;2022-08-01T06:38:18;29.44;62.84
64924;HTU21D;51436;44.692;39.214;2022-08-01T06:40:45;29.53;62.64
64924;HTU21D;51436;44.692;39.214;2022-08-01T06:43:20;29.58;62.28
64924;HTU21D;51436;44.692;39.214;2022-08-01T06:45:47;29.58;62.28
64924;HTU21D;51436;44.692;39.214;2022-08-01T06:48:14;29.63;62.50
64924;HTU21D;51436;44.692;39.214;2022-08-01T06:50:40;29.66;62.18
64924;HTU21D;51436;44.692;39.214;2022-08-01T06:53:07;29.65;62.08
64924;HTU21D;51436;44.692;39.214;2022-08-01T06:55:34;29.64;62.27
64924;HTU21D;51436;44.692;39.214;2022-08-01T06:58:00;29.66;62.66
64924;HTU21D;51436;44.692;39.214;2022-08-01T07:00:27;29.68;62.61
64924;HTU21D;51436;44.692;39.214;2022-08-01T07:02:55;29.74;62.42
64924;HTU21D;51436;44.692;39.214;2022-08-01T07:05:23;29.76;62.10
64924;HTU21D;51436;44.692;39.214;2022-08-01T07:08:04;29.80;62.12
64924;HTU21D;51436;44.692;39.214;2022-08-01T07:10:31;29.87;62.12
64924;HTU21D;51436;44.692;39.214;2022-08-01T07:12:57;29.93;62.40
64924;HTU21D;51436;44.692;39.214;2022-08-01T07:15:23;29.96;62.35
64924;HTU21D;51436;44.692;39.214;2022-08-01T07:17:53;30.01;62.60
64924;HTU21D;51436;44.692;39.214;2022-08-01T07:20:19;30.01;62.18
64924;HTU21D;51436;44.692;39.214;2022-08-01T07:22:45;30.02;62.02
64924;HTU21D;51436;44.692;39.214;2022-08-01T07:25:11;30.04;61.83
64924;HTU21D;51436;44.692;39.214;2022-08-01T07:27:38;30.07;61.95
64924;HTU21D;51436;44.692;39.214;2022-08-01T07:30:05;30.12;62.25
64924;HTU21D;51436;44.692;39.214;2022-08-01T07:32:31;30.12;62.48
64924;HTU21D;51436;44.692;39.214;2022-08-01T07:34:59;30.21;62.25
64924;HTU21D;51436;44.692;39.214;2022-08-01T07:37:25;30.32;61.92
64924;HTU21D;51436;44.692;39.214;2022-08-01T07:39:52;30.40;61.63
64924;HTU21D;51436;44.692;39.214;2022-08-01T07:42:18;30.45;61.80
64924;HTU21D;51436;44.692;39.214;2022-08-01T07:44:45;30.47;61.24
64924;HTU21D;51436;44.692;39.214;2022-08-01T07:47:11;30.46;61.18
64924;HTU21D;51436;44.692;39.214;2022-08-01T07:49:38;30.48;60.94
64924;HTU21D;51436;44.692;39.214;2022-08-01T07:52:05;30.55;60.80
64924;HTU21D;51436;44.692;39.214;2022-08-01T07:54:32;30.59;60.50
64924;HTU21D;51436;44.692;39.214;2022-08-01T07:56:58;30.61;60.03
64924;HTU21D;51436;44.692;39.214;2022-08-01T07:59:25;30.62;60.10
64924;HTU21D;51436;44.692;39.214;2022-08-01T08:01:51;30.65;59.42
64924;HTU21D;51436;44.692;39.214;2022-08-01T08:04:18;30.70;59.21
64924;HTU21D;51436;44.692;39.214;2022-08-01T08:06:44;30.75;58.97
64924;HTU21D;51436;44.692;39.214;2022-08-01T08:09:14;30.76;59.10
64924;HTU21D;51436;44.692;39.214;2022-08-01T08:11:45;30.74;59.02
64924;HTU21D;51436;44.692;39.214;2022-08-01T08:14:12;30.78;59.13
64924;HTU21D;51436;44.692;39.214;2022-08-01T08:16:38;30.77;58.65
64924;HTU21D;51436;44.692;39.214;2022-08-01T08:19:04;30.79;58.57
64924;HTU21D;51436;44.692;39.214;2022-08-01T08:21:31;30.79;58.81
64924;HTU21D;51436;44.692;39.214;2022-08-01T08:23:57;30.85;59.13
64924;HTU21D;51436;44.692;39.214;2022-08-01T08:26:42;30.94;59.14
64924;HTU21D;51436;44.692;39.214;2022-08-01T08:29:09;31.04;59.49
64924;HTU21D;51436;44.692;39.214;2022-08-01T08:31:35;31.10;58.64
64924;HTU21D;51436;44.692;39.214;2022-08-01T08:34:01;31.09;58.93
64924;HTU21D;51436;44.692;39.214;2022-08-01T08:36:28;31.08;58.36
64924;HTU21D;51436;44.692;39.214;2022-08-01T08:38:54;31.09;58.41
64924;HTU21D;51436;44.692;39.214;2022-08-01T08:41:22;31.13;59.08
64924;HTU21D;51436;44.692;39.214;2022-08-01T08:43:48;31.18;58.81
64924;HTU21D;51436;44.692;39.214;2022-08-01T08:46:16;31.24;59.03
64924;HTU21D;51436;44.692;39.214;2022-08-01T08:48:42;31.25;58.77
64924;HTU21D;51436;44.692;39.214;2022-08-01T08:51:10;31.22;58.73
64924;HTU21D;51436;44.692;39.214;2022-08-01T08:53:40;31.24;58.17
64924;HTU21D;51436;44.692;39.214;2022-08-01T08:56:12;31.22;57.97
64924;HTU21D;51436;44.692;39.214;2022-08-01T08:58:42;31.25;57.73
64924;HTU21D;51436;44.692;39.214;2022-08-01T09:01:09;31.29;57.84
64924;HTU21D;51436;44.692;39.214;2022-08-01T09:03:36;31.29;57.80
64924;HTU21D;51436;44.692;39.214;2022-08-01T09:06:03;31.34;58.47
64924;HTU21D;51436;44.692;39.214;2022-08-01T09:08:29;31.44;57.94
64924;HTU21D;51436;44.692;39.214;2022-08-01T09:10:56;31.50;57.66
64924;HTU21D;51436;44.692;39.214;2022-08-01T09:13:23;31.51;57.63
64924;HTU21D;51436;44.692;39.214;2022-08-01T09:15:51;31.52;57.26
64924;HTU21D;51436;44.692;39.214;2022-08-01T09:18:37;31.48;57.74
64924;HTU21D;51436;44.692;39.214;2022-08-01T09:23:39;31.71;57.85
64924;HTU21D;51436;44.692;39.214;2022-08-01T09:26:35;31.82;57.39
64924;HTU21D;51436;44.692;39.214;2022-08-01T09:29:05;31.85;57.19
64924;HTU21D;51436;44.692;39.214;2022-08-01T09:31:43;31.81;57.03
64924;HTU21D;51436;44.692;39.214;2022-08-01T09:34:10;31.80;56.76
64924;HTU21D;51436;44.692;39.214;2022-08-01T09:36:59;31.84;57.37
64924;HTU21D;51436;44.692;39.214;2022-08-01T09:39:30;31.84;56.68
64924;HTU21D;51436;44.692;39.214;2022-08-01T09:42:00;31.85;57.11
64924;HTU21D;51436;44.692;39.214;2022-08-01T09:44:43;31.96;56.87
64924;HTU21D;51436;44.692;39.214;2022-08-01T09:47:11;32.00;56.48
64924;HTU21D;51436;44.692;39.214;2022-08-01T09:49:39;32.05;56.62
64924;HTU21D;51436;44.692;39.214;2022-08-01T09:52:20;32.05;57.12
64924;HTU21D;51436;44.692;39.214;2022-08-01T09:54:59;32.09;57.28
64924;HTU21D;51436;44.692;39.214;2022-08-01T09:57:27;32.20;57.32
64924;HTU21D;51436;44.692;39.214;2022-08-01T09:59:56;32.30;56.79
64924;HTU21D;51436;44.692;39.214;2022-08-01T10:02:32;32.33;55.81
64924;HTU21D;51436;44.692;39.214;2022-08-01T10:05:00;32.22;55.83
64924;HTU21D;51436;44.692;39.214;2022-08-01T10:07:27;31.97;56.31
64924;HTU21D;51436;44.692;39.214;2022-08-01T10:09:53;31.78;56.64
64924;HTU21D;51436;44.692;39.214;2022-08-01T10:12:21;31.63;57.14
64924;HTU21D;51436;44.692;39.214;2022-08-01T10:14:50;31.53;57.83
64924;HTU21D;51436;44.692;39.214;2022-08-01T10:17:19;31.50;56.91
64924;HTU21D;51436;44.692;39.214;2022-08-01T10:19:46;31.56;57.20
64924;HTU21D;51436;44.692;39.214;2022-08-01T10:22:16;31.70;56.97
64924;HTU21D;51436;44.692;39.214;2022-08-01T10:24:46;31.71;56.48
64924;HTU21D;51436;44.692;39.214;2022-08-01T10:27:15;31.63;56.74
64924;HTU21D;51436;44.692;39.214;2022-08-01T10:30:02;31.46;56.42
64924;HTU21D;51436;44.692;39.214;2022-08-01T10:32:35;31.37;57.09
64924;HTU21D;51436;44.692;39.214;2022-08-01T10:35:11;31.27;57.89
64924;HTU21D;51436;44.692;39.214;2022-08-01T10:37:44;31.20;57.55
64924;HTU21D;51436;44.692;39.214;2022-08-01T10:40:13;31.16;57.93
64924;HTU21D;51436;44.692;39.214;2022-08-01T10:42:41;31.09;58.48
64924;HTU21D;51436;44.692;39.214;2022-08-01T10:45:09;30.99;58.49
64924;HTU21D;51436;44.692;39.214;2022-08-01T10:47:48;31.07;58.35
64924;HTU21D;51436;44.692;39.214;2022-08-01T10:50:24;31.05;58.45
64924;HTU21D;51436;44.692;39.214;2022-08-01T10:53:16;30.99;58.86
64924;HTU21D;51436;44.692;39.214;2022-08-01T11:03:57;31.46;58.13
64924;HTU21D;51436;44.692;39.214;2022-08-01T11:09:05;31.79;57.32
64924;HTU21D;51436;44.692;39.214;2022-08-01T11:11:32;31.65;56.85
64924;HTU21D;51436;44.692;39.214;2022-08-01T11:14:05;31.52;58.16
64924;HTU21D;51436;44.692;39.214;2022-08-01T11:16:38;31.37;59.14
64924;HTU21D;51436;44.692;39.214;2022-08-01T11:19:06;31.48;58.93
64924;HTU21D;51436;44.692;39.214;2022-08-01T11:27:23;31.60;58.85
64924;HTU21D;51436;44.692;39.214;2022-08-01T11:32:53;31.96;58.33
64924;HTU21D;51436;44.692;39.214;2022-08-01T11:35:24;32.11;57.40
64924;HTU21D;51436;44.692;39.214;2022-08-01T11:38:24;32.14;57.19
64924;HTU21D;51436;44.692;39.214;2022-08-01T11:41:32;32.19;56.85
64924;HTU21D;51436;44.692;39.214;2022-08-01T11:44:06;32.28;55.53
64924;HTU21D;51436;44.692;39.214;2022-08-01T11:49:31;32.25;56.71
64924;HTU21D;51436;44.692;39.214;2022-08-01T11:52:06;32.23;55.86
64924;HTU21D;51436;44.692;39.214;2022-08-01T11:54:47;32.29;55.23
64924;HTU21D;51436;44.692;39.214;2022-08-01T11:57:20;32.32;55.98
64924;HTU21D;51436;44.692;39.214;2022-08-01T11:59:49;32.31;56.46
64924;HTU21D;51436;44.692;39.214;2022-08-01T12:02:16;32.37;56.60
64924;HTU21D;51436;44.692;39.214;2022-08-01T12:04:58;32.38;56.33
64924;HTU21D;51436;44.692;39.214;2022-08-01T12:07:26;32.38;56.22
64924;HTU21D;51436;44.692;39.214;2022-08-01T12:12:29;32.47;56.46
64924;HTU21D;51436;44.692;39.214;2022-08-01T12:15:01;32.32;56.22
64924;HTU21D;51436;44.692;39.214;2022-08-01T12:18:06;32.16;56.34
64924;HTU21D;51436;44.692;39.214;2022-08-01T12:20:35;32.12;56.54
64924;HTU21D;51436;44.692;39.214;2022-08-01T12:23:03;32.17;56.61
64924;HTU21D;51436;44.692;39.214;2022-08-01T12:25:34;32.11;56.97
64924;HTU21D;51436;44.692;39.214;2022-08-01T12:28:03;31.93;56.60
64924;HTU21D;51436;44.692;39.214;2022-08-01T12:30:31;31.87;56.96
64924;HTU21D;51436;44.692;39.214;2022-08-01T12:33:02;31.96;57.01
64924;HTU21D;51436;44.692;39.214;2022-08-01T12:35:30;32.01;56.63
64924;HTU21D;51436;44.692;39.214;2022-08-01T12:38:03;32.02;56.54
64924;HTU21D;51436;44.692;39.214;2022-08-01T12:40:30;31.98;56.81
64924;HTU21D;51436;44.692;39.214;2022-08-01T12:42:59;31.90;57.46
64924;HTU21D;51436;44.692;39.214;2022-08-01T12:45:34;31.81;57.45
64924;HTU21D;51436;44.692;39.214;2022-08-01T12:48:01;31.72;57.46
64924;HTU21D;51436;44.692;39.214;2022-08-01T12:50:29;31.61;57.70
64924;HTU21D;51436;44.692;39.214;2022-08-01T12:52:57;31.56;57.86
64924;HTU21D;51436;44.692;39.214;2022-08-01T12:55:26;31.59;57.79
64924;HTU21D;51436;44.692;39.214;2022-08-01T12:58:09;31.58;57.90
64924;HTU21D;51436;44.692;39.214;2022-08-01T13:00:38;31.53;56.90
64924;HTU21D;51436;44.692;39.214;2022-08-01T13:03:10;31.60;56.41
64924;HTU21D;51436;44.692;39.214;2022-08-01T13:05:50;31.55;56.40
64924;HTU21D;51436;44.692;39.214;2022-08-01T13:08:39;31.44;56.45
64924;HTU21D;51436;44.692;39.214;2022-08-01T13:11:11;31.42;57.06
64924;HTU21D;51436;44.692;39.214;2022-08-01T13:13:51;31.53;56.74
64924;HTU21D;51436;44.692;39.214;2022-08-01T13:16:24;31.64;56.56
64924;HTU21D;51436;44.692;39.214;2022-08-01T13:18:51;31.67;56.63
64924;HTU21D;51436;44.692;39.214;2022-08-01T13:21:20;31.74;56.46
64924;HTU21D;51436;44.692;39.214;2022-08-01T13:24:03;31.72;56.38
64924;HTU21D;51436;44.692;39.214;2022-08-01T13:26:46;31.76;56.32
64924;HTU21D;51436;44.692;39.214;2022-08-01T13:29:16;31.79;56.06
64924;HTU21D;51436;44.692;39.214;2022-08-01T13:31:43;31.79;56.33
64924;HTU21D;51436;44.692;39.214;2022-08-01T13:34:10;31.80;56.29
64924;HTU21D;51436;44.692;39.214;2022-08-01T13:36:38;31.79;56.09
64924;HTU21D;51436;44.692;39.214;2022-08-01T13:39:05;31.76;56.03
64924;HTU21D;51436;44.692;39.214;2022-08-01T13:41:51;31.73;56.42
64924;HTU21D;51436;44.692;39.214;2022-08-01T13:44:17;31.72;56.68
64924;HTU21D;51436;44.692;39.214;2022-08-01T13:46:44;31.68;56.42
64924;HTU21D;51436;44.692;39.214;2022-08-01T13:49:13;31.65;56.98
64924;HTU21D;51436;44.692;39.214;2022-08-01T13:51:41;31.61;56.94
64924;HTU21D;51436;44.692;39.214;2022-08-01T13:54:08;31.59;57.23
64924;HTU21D;51436;44.692;39.214;2022-08-01T13:56:34;31.57;57.61
64924;HTU21D;51436;44.692;39.214;2022-08-01T13:59:01;31.46;57.55
64924;HTU21D;51436;44.692;39.214;2022-08-01T14:01:27;31.29;57.71
64924;HTU21D;51436;44.692;39.214;2022-08-01T14:03:54;31.02;57.80
64924;HTU21D;51436;44.692;39.214;2022-08-01T14:06:20;30.80;58.06
64924;HTU21D;51436;44.692;39.214;2022-08-01T14:08:48;30.62;58.39
64924;HTU21D;51436;44.692;39.214;2022-08-01T14:11:16;30.48;58.61
64924;HTU21D;51436;44.692;39.214;2022-08-01T14:13:43;30.34;58.69
64924;HTU21D;51436;44.692;39.214;2022-08-01T14:16:10;30.27;59.21
64924;HTU21D;51436;44.692;39.214;2022-08-01T14:18:36;30.20;59.31
64924;HTU21D;51436;44.692;39.214;2022-08-01T14:21:12;30.17;59.48
64924;HTU21D;51436;44.692;39.214;2022-08-01T14:23:38;30.18;59.62
64924;HTU21D;51436;44.692;39.214;2022-08-01T14:26:04;30.22;59.57
64924;HTU21D;51436;44.692;39.214;2022-08-01T14:28:31;30.25;59.55
64924;HTU21D;51436;44.692;39.214;2022-08-01T14:30:59;30.26;59.59
64924;HTU21D;51436;44.692;39.214;2022-08-01T14:33:26;30.21;59.92
64924;HTU21D;51436;44.692;39.214;2022-08-01T14:35:52;30.10;60.41
64924;HTU21D;51436;44.692;39.214;2022-08-01T14:38:19;30.05;60.58
64924;HTU21D;51436;44.692;39.214;2022-08-01T14:40:46;29.98;60.79
64924;HTU21D;51436;44.692;39.214;2022-08-01T14:43:20;29.92;60.81
64924;HTU21D;51436;44.692;39.214;2022-08-01T14:45:47;29.92;60.94
64924;HTU21D;51436;44.692;39.214;2022-08-01T14:48:18;29.90;61.06
64924;HTU21D;51436;44.692;39.214;2022-08-01T14:50:44;29.88;61.08
64924;HTU21D;51436;44.692;39.214;2022-08-01T14:53:10;29.86;60.75
64924;HTU21D;51436;44.692;39.214;2022-08-01T14:55:37;29.82;60.49
64924;HTU21D;51436;44.692;39.214;2022-08-01T14:58:04;29.85;60.56
64924;HTU21D;51436;44.692;39.214;2022-08-01T15:00:30;29.87;61.38
64924;HTU21D;51436;44.692;39.214;2022-08-01T15:02:56;29.87;61.77
64924;HTU21D;51436;44.692;39.214;2022-08-01T15:05:23;29.85;62.21
64924;HTU21D;51436;44.692;39.214;2022-08-01T15:07:49;29.82;62.76
64924;HTU21D;51436;44.692;39.214;2022-08-01T15:10:16;29.79;63.01
64924;HTU21D;51436;44.692;39.214;2022-08-01T15:12:42;29.79;63.27
64924;HTU21D;51436;44.692;39.214;2022-08-01T15:15:09;29.78;63.40
64924;HTU21D;51436;44.692;39.214;2022-08-01T15:17:36;29.76;62.98
64924;HTU21D;51436;44.692;39.214;2022-08-01T15:20:04;29.70;61.63
64924;HTU21D;51436;44.692;39.214;2022-08-01T15:22:31;29.62;61.44
64924;HTU21D;51436;44.692;39.214;2022-08-01T15:24:59;29.46;59.03
64924;HTU21D;51436;44.692;39.214;2022-08-01T15:27:27;29.28;57.83
64924;HTU21D;51436;44.692;39.214;2022-08-01T15:29:55;29.14;57.45
64924;HTU21D;51436;44.692;39.214;2022-08-01T15:32:21;29.00;57.10
64924;HTU21D;51436;44.692;39.214;2022-08-01T15:34:48;28.85;56.84
64924;HTU21D;51436;44.692;39.214;2022-08-01T15:37:15;28.64;57.33
64924;HTU21D;51436;44.692;39.214;2022-08-01T15:39:42;28.31;59.75
64924;HTU21D;51436;44.692;39.214;2022-08-01T15:42:16;27.78;60.51
64924;HTU21D;51436;44.692;39.214;2022-08-01T15:44:43;27.41;61.31
64924;HTU21D;51436;44.692;39.214;2022-08-01T15:47:10;27.10;63.69
64924;HTU21D;51436;44.692;39.214;2022-08-01T15:49:37;27.00;63.87
64924;HTU21D;51436;44.692;39.214;2022-08-01T15:52:05;26.95;64.78
64924;HTU21D;51436;44.692;39.214;2022-08-01T15:54:58;26.36;65.93
64924;HTU21D;51436;44.692;39.214;2022-08-01T15:57:27;25.84;66.97
64924;HTU21D;51436;44.692;39.214;2022-08-01T15:59:54;25.68;66.99